sensor_id;sensor_type;location;lat;lon;timestamp;temperature;humidity
16515;DHT22;8370;52.556;7.970;2023-04-03T00:01:33;2.30;99.90
16515;DHT22;8370;52.556;7.970;2023-04-03T00:03:59;2.20;99.90
16515;DHT22;8370;52.556;7.970;2023-04-03T00:06:24;2.20;99.90
16515;DHT22;8370;52.556;7.970;2023-04-03T00:08:50;2.20;99.90
16515;DHT22;8370;52.556;7.970;2023-04-03T00:11:15;2.20;99.90
16515;DHT22;8370;52.556;7.970;2023-04-03T00:13:41;2.10;99.90
16515;DHT22;8370;52.556;7.970;2023-04-03T00:16:07;2.10;99.90
16515;DHT22;8370;52.556;7.970;2023-04-03T00:18:33;2.10;99.90
16515;DHT22;8370;52.556;7.970;2023-04-03T00:20:58;2.10;99.90
16515;DHT22;8370;52.556;7.970;2023-04-03T00:23:23;2.00;99.90
16515;DHT22;8370;52.556;7.970;2023-04-03T00:25:50;2.00;99.90
16515;DHT22;8370;52.556;7.970;2023-04-03T00:28:15;2.00;99.90
16515;DHT22;8370;52.556;7.970;2023-04-03T00:30:41;1.90;99.90
16515;DHT22;8370;52.556;7.970;2023-04-03T00:33:07;1.90;99.90
16515;DHT22;8370;52.556;7.970;2023-04-03T00:35:33;1.90;99.90
16515;DHT22;8370;52.556;7.970;2023-04-03T00:37:59;1.80;99.90
16515;DHT22;8370;52.556;7.970;2023-04-03T00:40:25;1.80;99.90
16515;DHT22;8370;52.556;7.970;2023-04-03T00:42:54;1.70;99.90
16515;DHT22;8370;52.556;7.970;2023-04-03T00:45:29;1.60;99.90
16515;DHT22;8370;52.556;7.970;2023-04-03T00:47:55;1.60;99.90
16515;DHT22;8370;52.556;7.970;2023-04-03T00:50:20;1.60;99.90
16515;DHT22;8370;52.556;7.970;2023-04-03T00:52:46;1.60;99.90
16515;DHT22;8370;52.556;7.970;2023-04-03T00:55:14;1.60;99.90
16515;DHT22;8370;52.556;7.970;2023-04-03T00:57:40;1.60;99.90
16515;DHT22;8370;52.556;7.970;2023-04-03T01:00:07;1.50;99.90
16515;DHT22;8370;52.556;7.970;2023-04-03T01:02:34;1.50;99.90
16515;DHT22;8370;52.556;7.970;2023-04-03T01:04:59;1.40;99.90
16515;DHT22;8370;52.556;7.970;2023-04-03T01:07:29;1.40;99.90
16515;DHT22;8370;52.556;7.970;2023-04-03T01:09:59;1.40;99.90
16515;DHT22;8370;52.556;7.970;2023-04-03T01:12:27;1.40;99.90
16515;DHT22;8370;52.556;7.970;2023-04-03T01:14:54;1.40;99.90
16515;DHT22;8370;52.556;7.970;2023-04-03T01:17:31;1.30;99.90
16515;DHT22;8370;52.556;7.970;2023-04-03T01:20:14;1.30;99.90
16515;DHT22;8370;52.556;7.970;2023-04-03T01:25:13;1.30;99.90
16515;DHT22;8370;52.556;7.970;2023-04-03T01:27:38;1.20;99.90
16515;DHT22;8370;52.556;7.970;2023-04-03T01:30:04;1.20;99.90
16515;DHT22;8370;52.556;7.970;2023-04-03T01:32:29;1.20;99.90
16515;DHT22;8370;52.556;7.970;2023-04-03T01:34:55;1.20;99.90
16515;DHT22;8370;52.556;7.970;2023-04-03T01:37:20;1.20;99.90
16515;DHT22;8370;52.556;7.970;2023-04-03T01:39:46;1.10;99.90
16515;DHT22;8370;52.556;7.970;2023-04-03T01:42:11;1.10;99.90
16515;DHT22;8370;52.556;7.970;2023-04-03T01:44:37;1.10;99.90
16515;DHT22;8370;52.556;7.970;2023-04-03T01:47:04;1.00;99.90
16515;DHT22;8370;52.556;7.970;2023-04-03T01:49:30;1.00;99.90
16515;DHT22;8370;52.556;7.970;2023-04-03T01:51:56;1.00;99.90
16515;DHT22;8370;52.556;7.970;2023-04-03T01:54:21;1.00;99.90
16515;DHT22;8370;52.556;7.970;2023-04-03T01:56:46;0.90;99.90
16515;DHT22;8370;52.556;7.970;2023-04-03T01:59:12;0.90;99.90
16515;DHT22;8370;52.556;7.970;2023-04-03T02:01:37;0.90;99.90
16515;DHT22;8370;52.556;7.970;2023-04-03T02:04:03;0.90;99.90
16515;DHT22;8370;52.556;7.970;2023-04-03T02:06:28;0.80;99.90
16515;DHT22;8370;52.556;7.970;2023-04-03T02:08:53;0.80;99.90
16515;DHT22;8370;52.556;7.970;2023-04-03T02:11:19;0.80;99.90
16515;DHT22;8370;52.556;7.970;2023-04-03T02:13:45;0.70;99.90
16515;DHT22;8370;52.556;7.970;2023-04-03T02:16:10;0.70;99.90
16515;DHT22;8370;52.556;7.970;2023-04-03T02:18:37;0.70;99.90
16515;DHT22;8370;52.556;7.970;2023-04-03T02:21:02;0.70;99.90
16515;DHT22;8370;52.556;7.970;2023-04-03T02:23:28;0.70;99.90
16515;DHT22;8370;52.556;7.970;2023-04-03T02:25:53;0.70;99.90
16515;DHT22;8370;52.556;7.970;2023-04-03T02:28:27;0.60;99.90
16515;DHT22;8370;52.556;7.970;2023-04-03T02:30:52;0.60;99.90
16515;DHT22;8370;52.556;7.970;2023-04-03T02:33:17;0.60;99.90
16515;DHT22;8370;52.556;7.970;2023-04-03T02:35:43;0.60;99.90
16515;DHT22;8370;52.556;7.970;2023-04-03T02:38:08;0.50;99.90
16515;DHT22;8370;52.556;7.970;2023-04-03T02:40:34;0.60;99.90
16515;DHT22;8370;52.556;7.970;2023-04-03T02:42:59;0.50;99.90
16515;DHT22;8370;52.556;7.970;2023-04-03T02:45:25;0.50;99.90
16515;DHT22;8370;52.556;7.970;2023-04-03T02:47:50;0.50;99.90
16515;DHT22;8370;52.556;7.970;2023-04-03T02:50:15;0.40;99.90
16515;DHT22;8370;52.556;7.970;2023-04-03T02:52:41;0.50;99.90
16515;DHT22;8370;52.556;7.970;2023-04-03T02:55:06;0.50;99.90
16515;DHT22;8370;52.556;7.970;2023-04-03T02:57:32;0.50;99.90
16515;DHT22;8370;52.556;7.970;2023-04-03T02:59:57;0.40;99.90
16515;DHT22;8370;52.556;7.970;2023-04-03T03:02:23;0.40;99.90
16515;DHT22;8370;52.556;7.970;2023-04-03T03:04:48;0.30;99.90
16515;DHT22;8370;52.556;7.970;2023-04-03T03:07:14;0.40;99.90
16515;DHT22;8370;52.556;7.970;2023-04-03T03:09:39;0.40;99.90
16515;DHT22;8370;52.556;7.970;2023-04-03T03:12:05;0.40;99.90
16515;DHT22;8370;52.556;7.970;2023-04-03T03:14:30;0.30;99.90
16515;DHT22;8370;52.556;7.970;2023-04-03T03:16:56;0.30;99.90
16515;DHT22;8370;52.556;7.970;2023-04-03T03:19:21;0.30;99.90
16515;DHT22;8370;52.556;7.970;2023-04-03T03:21:46;0.20;99.90
16515;DHT22;8370;52.556;7.970;2023-04-03T03:24:12;0.20;99.90
16515;DHT22;8370;52.556;7.970;2023-04-03T03:26:37;0.20;99.90
16515;DHT22;8370;52.556;7.970;2023-04-03T03:29:03;0.10;99.90
16515;DHT22;8370;52.556;7.970;2023-04-03T03:31:28;0.10;99.90
16515;DHT22;8370;52.556;7.970;2023-04-03T03:33:53;0.10;99.90
16515;DHT22;8370;52.556;7.970;2023-04-03T03:36:19;0.10;99.90
16515;DHT22;8370;52.556;7.970;2023-04-03T03:38:45;0.10;99.90
16515;DHT22;8370;52.556;7.970;2023-04-03T03:41:10;0.10;99.90
16515;DHT22;8370;52.556;7.970;2023-04-03T03:43:36;0.10;99.90
16515;DHT22;8370;52.556;7.970;2023-04-03T03:46:01;0.00;99.90
16515;DHT22;8370;52.556;7.970;2023-04-03T03:48:27;0.00;99.90
16515;DHT22;8370;52.556;7.970;2023-04-03T03:50:52;0.00;99.90
16515;DHT22;8370;52.556;7.970;2023-04-03T03:53:18;-0.10;99.90
16515;DHT22;8370;52.556;7.970;2023-04-03T03:55:44;-0.10;99.90
16515;DHT22;8370;52.556;7.970;2023-04-03T03:58:10;-0.10;99.90
16515;DHT22;8370;52.556;7.970;2023-04-03T04:00:35;-0.10;99.90
16515;DHT22;8370;52.556;7.970;2023-04-03T04:03:01;-0.10;99.90
16515;DHT22;8370;52.556;7.970;2023-04-03T04:05:26;-0.10;99.90
16515;DHT22;8370;52.556;7.970;2023-04-03T04:07:52;-0.20;99.90
16515;DHT22;8370;52.556;7.970;2023-04-03T04:10:17;-0.20;99.90
16515;DHT22;8370;52.556;7.970;2023-04-03T04:12:43;-0.20;99.90
16515;DHT22;8370;52.556;7.970;2023-04-03T04:15:08;-0.20;99.90
16515;DHT22;8370;52.556;7.970;2023-04-03T04:17:34;-0.20;99.90
16515;DHT22;8370;52.556;7.970;2023-04-03T04:20:00;-0.30;99.90
16515;DHT22;8370;52.556;7.970;2023-04-03T04:22:26;-0.30;99.90
16515;DHT22;8370;52.556;7.970;2023-04-03T04:24:51;-0.30;99.90
16515;DHT22;8370;52.556;7.970;2023-04-03T04:27:16;-0.30;99.90
16515;DHT22;8370;52.556;7.970;2023-04-03T04:29:42;-0.30;99.90
16515;DHT22;8370;52.556;7.970;2023-04-03T04:32:07;-0.30;99.90
16515;DHT22;8370;52.556;7.970;2023-04-03T04:34:34;-0.30;99.90
16515;DHT22;8370;52.556;7.970;2023-04-03T04:36:59;-0.30;99.90
16515;DHT22;8370;52.556;7.970;2023-04-03T04:39:25;-0.30;99.90
16515;DHT22;8370;52.556;7.970;2023-04-03T04:41:50;-0.30;99.90
16515;DHT22;8370;52.556;7.970;2023-04-03T04:44:16;-0.30;99.90
16515;DHT22;8370;52.556;7.970;2023-04-03T04:46:42;-0.30;99.90
16515;DHT22;8370;52.556;7.970;2023-04-03T04:49:07;-0.30;99.90
16515;DHT22;8370;52.556;7.970;2023-04-03T04:51:32;-0.40;99.90
16515;DHT22;8370;52.556;7.970;2023-04-03T04:53:58;-0.40;99.90
16515;DHT22;8370;52.556;7.970;2023-04-03T04:56:23;-0.40;99.90
16515;DHT22;8370;52.556;7.970;2023-04-03T04:58:49;-0.40;99.90
16515;DHT22;8370;52.556;7.970;2023-04-03T05:01:14;-0.40;99.90
16515;DHT22;8370;52.556;7.970;2023-04-03T05:03:40;-0.40;99.90
16515;DHT22;8370;52.556;7.970;2023-04-03T05:06:05;-0.50;99.90
16515;DHT22;8370;52.556;7.970;2023-04-03T05:08:30;-0.50;99.90
16515;DHT22;8370;52.556;7.970;2023-04-03T05:10:56;-0.50;99.90
16515;DHT22;8370;52.556;7.970;2023-04-03T05:13:22;-0.50;99.90
16515;DHT22;8370;52.556;7.970;2023-04-03T05:15:47;-0.50;99.90
16515;DHT22;8370;52.556;7.970;2023-04-03T05:18:13;-0.50;99.90
16515;DHT22;8370;52.556;7.970;2023-04-03T05:20:38;-0.50;99.90
16515;DHT22;8370;52.556;7.970;2023-04-03T05:23:04;-0.50;99.90
16515;DHT22;8370;52.556;7.970;2023-04-03T05:25:29;-0.40;99.90
16515;DHT22;8370;52.556;7.970;2023-04-03T05:27:55;-0.40;99.90
16515;DHT22;8370;52.556;7.970;2023-04-03T05:30:20;-0.40;99.90
16515;DHT22;8370;52.556;7.970;2023-04-03T05:32:46;-0.40;99.90
16515;DHT22;8370;52.556;7.970;2023-04-03T05:35:11;-0.30;99.90
16515;DHT22;8370;52.556;7.970;2023-04-03T05:37:37;-0.30;99.90
16515;DHT22;8370;52.556;7.970;2023-04-03T05:40:06;-0.30;99.90
16515;DHT22;8370;52.556;7.970;2023-04-03T05:42:31;-0.20;99.90
16515;DHT22;8370;52.556;7.970;2023-04-03T05:44:57;-0.20;99.90
16515;DHT22;8370;52.556;7.970;2023-04-03T05:47:22;-0.10;99.90
16515;DHT22;8370;52.556;7.970;2023-04-03T05:49:48;-0.10;99.90
16515;DHT22;8370;52.556;7.970;2023-04-03T05:52:17;0.00;99.90
16515;DHT22;8370;52.556;7.970;2023-04-03T05:54:44;0.00;99.90
16515;DHT22;8370;52.556;7.970;2023-04-03T05:57:11;0.10;99.90
16515;DHT22;8370;52.556;7.970;2023-04-03T05:59:37;0.10;99.90
16515;DHT22;8370;52.556;7.970;2023-04-03T06:02:02;0.10;99.90
16515;DHT22;8370;52.556;7.970;2023-04-03T06:04:28;0.20;99.90
16515;DHT22;8370;52.556;7.970;2023-04-03T06:06:55;0.30;99.90
16515;DHT22;8370;52.556;7.970;2023-04-03T06:09:22;0.40;99.90
16515;DHT22;8370;52.556;7.970;2023-04-03T06:11:48;0.40;99.90
16515;DHT22;8370;52.556;7.970;2023-04-03T06:14:13;0.40;99.90
16515;DHT22;8370;52.556;7.970;2023-04-03T06:16:38;0.50;99.90
16515;DHT22;8370;52.556;7.970;2023-04-03T06:19:05;0.60;99.90
16515;DHT22;8370;52.556;7.970;2023-04-03T06:21:31;0.70;99.90
16515;DHT22;8370;52.556;7.970;2023-04-03T06:23:56;0.70;99.90
16515;DHT22;8370;52.556;7.970;2023-04-03T06:26:22;0.80;99.90
16515;DHT22;8370;52.556;7.970;2023-04-03T06:28:47;0.90;99.90
16515;DHT22;8370;52.556;7.970;2023-04-03T06:31:13;1.00;99.90
16515;DHT22;8370;52.556;7.970;2023-04-03T06:33:38;1.00;99.90
16515;DHT22;8370;52.556;7.970;2023-04-03T06:36:04;1.10;99.90
16515;DHT22;8370;52.556;7.970;2023-04-03T06:38:30;1.10;99.90
16515;DHT22;8370;52.556;7.970;2023-04-03T06:40:55;1.10;99.90
16515;DHT22;8370;52.556;7.970;2023-04-03T06:43:21;1.20;99.90
16515;DHT22;8370;52.556;7.970;2023-04-03T06:45:46;1.30;99.90
16515;DHT22;8370;52.556;7.970;2023-04-03T06:48:12;1.30;99.90
16515;DHT22;8370;52.556;7.970;2023-04-03T06:50:38;1.40;99.90
16515;DHT22;8370;52.556;7.970;2023-04-03T06:53:03;1.50;99.90
16515;DHT22;8370;52.556;7.970;2023-04-03T06:55:28;1.50;99.90
16515;DHT22;8370;52.556;7.970;2023-04-03T06:57:54;1.60;99.90
16515;DHT22;8370;52.556;7.970;2023-04-03T07:00:20;1.70;99.90
16515;DHT22;8370;52.556;7.970;2023-04-03T07:02:46;1.80;99.90
16515;DHT22;8370;52.556;7.970;2023-04-03T07:05:11;1.80;99.90
16515;DHT22;8370;52.556;7.970;2023-04-03T07:07:37;1.90;99.90
16515;DHT22;8370;52.556;7.970;2023-04-03T07:10:03;2.00;99.90
16515;DHT22;8370;52.556;7.970;2023-04-03T07:12:29;2.10;99.90
16515;DHT22;8370;52.556;7.970;2023-04-03T07:14:54;2.10;99.90
16515;DHT22;8370;52.556;7.970;2023-04-03T07:17:20;2.20;99.90
16515;DHT22;8370;52.556;7.970;2023-04-03T07:19:45;2.30;99.90
16515;DHT22;8370;52.556;7.970;2023-04-03T07:22:11;2.40;99.90
16515;DHT22;8370;52.556;7.970;2023-04-03T07:24:37;2.50;99.90
16515;DHT22;8370;52.556;7.970;2023-04-03T07:27:02;2.60;99.90
16515;DHT22;8370;52.556;7.970;2023-04-03T07:29:29;2.70;99.90
16515;DHT22;8370;52.556;7.970;2023-04-03T07:31:55;2.70;99.90
16515;DHT22;8370;52.556;7.970;2023-04-03T07:34:21;2.90;99.90
16515;DHT22;8370;52.556;7.970;2023-04-03T07:36:46;2.90;99.90
16515;DHT22;8370;52.556;7.970;2023-04-03T07:39:12;3.00;99.90
16515;DHT22;8370;52.556;7.970;2023-04-03T07:41:37;3.00;99.90
16515;DHT22;8370;52.556;7.970;2023-04-03T07:44:03;3.10;99.90
16515;DHT22;8370;52.556;7.970;2023-04-03T07:46:30;3.20;99.90
16515;DHT22;8370;52.556;7.970;2023-04-03T07:48:57;3.30;99.90
16515;DHT22;8370;52.556;7.970;2023-04-03T07:51:22;3.40;99.90
16515;DHT22;8370;52.556;7.970;2023-04-03T07:53:49;3.50;99.90
16515;DHT22;8370;52.556;7.970;2023-04-03T07:56:16;3.60;99.90
16515;DHT22;8370;52.556;7.970;2023-04-03T07:58:41;3.70;99.90
16515;DHT22;8370;52.556;7.970;2023-04-03T08:01:07;3.80;99.90
16515;DHT22;8370;52.556;7.970;2023-04-03T08:03:32;3.90;99.90
16515;DHT22;8370;52.556;7.970;2023-04-03T08:06:01;3.90;99.90
16515;DHT22;8370;52.556;7.970;2023-04-03T08:08:27;3.90;99.90
16515;DHT22;8370;52.556;7.970;2023-04-03T08:10:58;4.00;99.90
16515;DHT22;8370;52.556;7.970;2023-04-03T08:13:24;4.10;99.90
16515;DHT22;8370;52.556;7.970;2023-04-03T08:15:49;4.20;99.90
16515;DHT22;8370;52.556;7.970;2023-04-03T08:18:16;4.30;99.90
16515;DHT22;8370;52.556;7.970;2023-04-03T08:20:41;4.30;99.90
16515;DHT22;8370;52.556;7.970;2023-04-03T08:23:07;4.50;99.90
16515;DHT22;8370;52.556;7.970;2023-04-03T08:25:39;4.50;99.90
16515;DHT22;8370;52.556;7.970;2023-04-03T08:28:05;4.50;99.90
16515;DHT22;8370;52.556;7.970;2023-04-03T08:30:30;4.60;99.90
16515;DHT22;8370;52.556;7.970;2023-04-03T08:32:56;4.60;99.90
16515;DHT22;8370;52.556;7.970;2023-04-03T08:35:21;4.60;99.90
16515;DHT22;8370;52.556;7.970;2023-04-03T08:37:47;4.70;99.90
16515;DHT22;8370;52.556;7.970;2023-04-03T08:40:16;4.70;99.90
16515;DHT22;8370;52.556;7.970;2023-04-03T08:45:18;4.80;99.90
16515;DHT22;8370;52.556;7.970;2023-04-03T08:50:17;5.00;99.90
16515;DHT22;8370;52.556;7.970;2023-04-03T08:52:55;5.10;99.90
16515;DHT22;8370;52.556;7.970;2023-04-03T08:57:48;5.20;99.90
16515;DHT22;8370;52.556;7.970;2023-04-03T09:00:17;5.20;99.90
16515;DHT22;8370;52.556;7.970;2023-04-03T09:02:43;5.30;99.90
16515;DHT22;8370;52.556;7.970;2023-04-03T09:05:14;5.40;99.90
16515;DHT22;8370;52.556;7.970;2023-04-03T09:07:43;5.50;99.90
16515;DHT22;8370;52.556;7.970;2023-04-03T09:10:10;5.50;99.90
16515;DHT22;8370;52.556;7.970;2023-04-03T09:12:38;5.60;99.90
16515;DHT22;8370;52.556;7.970;2023-04-03T09:20:06;5.80;99.90
16515;DHT22;8370;52.556;7.970;2023-04-03T09:22:35;5.90;99.90
16515;DHT22;8370;52.556;7.970;2023-04-03T09:25:13;5.80;99.90
16515;DHT22;8370;52.556;7.970;2023-04-03T09:27:39;5.90;99.90
16515;DHT22;8370;52.556;7.970;2023-04-03T09:30:05;5.80;99.90
16515;DHT22;8370;52.556;7.970;2023-04-03T09:32:34;5.80;99.90
16515;DHT22;8370;52.556;7.970;2023-04-03T09:35:42;5.90;99.90
16515;DHT22;8370;52.556;7.970;2023-04-03T09:37:50;6.10;99.90
16515;DHT22;8370;52.556;7.970;2023-04-03T09:43:01;6.20;99.90
16515;DHT22;8370;52.556;7.970;2023-04-03T09:45:30;6.20;99.90
16515;DHT22;8370;52.556;7.970;2023-04-03T09:50:37;6.40;99.90
16515;DHT22;8370;52.556;7.970;2023-04-03T09:53:07;6.60;99.90
16515;DHT22;8370;52.556;7.970;2023-04-03T09:55:33;6.60;99.90
16515;DHT22;8370;52.556;7.970;2023-04-03T09:58:20;6.70;99.90
16515;DHT22;8370;52.556;7.970;2023-04-03T10:00:53;6.80;99.90
16515;DHT22;8370;52.556;7.970;2023-04-03T10:03:33;6.90;99.90
16515;DHT22;8370;52.556;7.970;2023-04-03T10:06:00;7.00;99.90
16515;DHT22;8370;52.556;7.970;2023-04-03T10:08:30;7.10;99.90
16515;DHT22;8370;52.556;7.970;2023-04-03T10:16:20;7.10;99.90
16515;DHT22;8370;52.556;7.970;2023-04-03T10:18:56;7.20;99.90
16515;DHT22;8370;52.556;7.970;2023-04-03T10:21:42;7.20;99.90
16515;DHT22;8370;52.556;7.970;2023-04-03T10:24:14;7.30;99.90
16515;DHT22;8370;52.556;7.970;2023-04-03T10:26:59;7.40;99.90
16515;DHT22;8370;52.556;7.970;2023-04-03T10:29:31;7.50;99.90
16515;DHT22;8370;52.556;7.970;2023-04-03T10:34:46;7.70;99.90
16515;DHT22;8370;52.556;7.970;2023-04-03T10:37:21;7.90;99.90
16515;DHT22;8370;52.556;7.970;2023-04-03T10:40:02;8.00;99.90
16515;DHT22;8370;52.556;7.970;2023-04-03T10:42:29;8.10;99.90
16515;DHT22;8370;52.556;7.970;2023-04-03T10:50:12;7.90;99.90
16515;DHT22;8370;52.556;7.970;2023-04-03T10:52:43;7.90;99.90
16515;DHT22;8370;52.556;7.970;2023-04-03T10:57:56;8.20;99.90
16515;DHT22;8370;52.556;7.970;2023-04-03T11:00:34;8.20;99.90
16515;DHT22;8370;52.556;7.970;2023-04-03T11:03:13;8.30;99.90
16515;DHT22;8370;52.556;7.970;2023-04-03T11:08:39;8.60;99.90
16515;DHT22;8370;52.556;7.970;2023-04-03T11:10:58;8.90;99.90
16515;DHT22;8370;52.556;7.970;2023-04-03T11:13:31;9.00;99.90
16515;DHT22;8370;52.556;7.970;2023-04-03T11:15:58;9.30;99.90
16515;DHT22;8370;52.556;7.970;2023-04-03T11:18:29;9.50;99.90
16515;DHT22;8370;52.556;7.970;2023-04-03T11:20:58;9.70;99.90
16515;DHT22;8370;52.556;7.970;2023-04-03T11:23:26;10.00;99.90
16515;DHT22;8370;52.556;7.970;2023-04-03T11:25:55;10.40;99.90
16515;DHT22;8370;52.556;7.970;2023-04-03T11:28:23;10.30;99.90
16515;DHT22;8370;52.556;7.970;2023-04-03T11:33:37;9.80;99.90
16515;DHT22;8370;52.556;7.970;2023-04-03T11:36:10;9.70;99.90
16515;DHT22;8370;52.556;7.970;2023-04-03T11:38:38;9.90;99.90
16515;DHT22;8370;52.556;7.970;2023-04-03T11:41:07;10.10;99.90
16515;DHT22;8370;52.556;7.970;2023-04-03T11:43:33;10.50;99.90
16515;DHT22;8370;52.556;7.970;2023-04-03T11:46:00;11.90;99.90
16515;DHT22;8370;52.556;7.970;2023-04-03T11:50:59;13.20;99.90
16515;DHT22;8370;52.556;7.970;2023-04-03T11:53:27;13.00;99.90
16515;DHT22;8370;52.556;7.970;2023-04-03T11:55:54;12.20;99.90
16515;DHT22;8370;52.556;7.970;2023-04-03T11:58:31;11.10;99.90
16515;DHT22;8370;52.556;7.970;2023-04-03T12:00:57;10.40;99.90
16515;DHT22;8370;52.556;7.970;2023-04-03T12:05:53;9.20;99.90
16515;DHT22;8370;52.556;7.970;2023-04-03T12:08:30;9.10;99.90
16515;DHT22;8370;52.556;7.970;2023-04-03T12:13:34;9.60;99.90
16515;DHT22;8370;52.556;7.970;2023-04-03T12:15:59;10.80;99.90
16515;DHT22;8370;52.556;7.970;2023-04-03T12:18:37;12.20;99.90
16515;DHT22;8370;52.556;7.970;2023-04-03T12:21:05;13.50;99.90
16515;DHT22;8370;52.556;7.970;2023-04-03T12:23:32;14.60;99.90
16515;DHT22;8370;52.556;7.970;2023-04-03T12:26:03;14.60;99.90
16515;DHT22;8370;52.556;7.970;2023-04-03T12:28:35;15.70;99.90
16515;DHT22;8370;52.556;7.970;2023-04-03T12:31:01;16.40;98.60
16515;DHT22;8370;52.556;7.970;2023-04-03T12:36:26;16.40;96.30
16515;DHT22;8370;52.556;7.970;2023-04-03T12:39:01;16.60;97.50
16515;DHT22;8370;52.556;7.970;2023-04-03T12:44:26;17.20;95.80
16515;DHT22;8370;52.556;7.970;2023-04-03T12:46:58;18.50;90.40
16515;DHT22;8370;52.556;7.970;2023-04-03T12:49:37;19.20;83.80
16515;DHT22;8370;52.556;7.970;2023-04-03T12:52:22;16.00;89.10
16515;DHT22;8370;52.556;7.970;2023-04-03T12:54:51;14.40;92.80
16515;DHT22;8370;52.556;7.970;2023-04-03T12:57:21;14.50;96.60
16515;DHT22;8370;52.556;7.970;2023-04-03T12:59:48;15.20;94.60
16515;DHT22;8370;52.556;7.970;2023-04-03T13:02:19;15.80;93.10
16515;DHT22;8370;52.556;7.970;2023-04-03T13:04:45;17.20;92.10
16515;DHT22;8370;52.556;7.970;2023-04-03T13:07:28;18.30;91.70
16515;DHT22;8370;52.556;7.970;2023-04-03T13:09:57;18.70;90.70
16515;DHT22;8370;52.556;7.970;2023-04-03T13:12:22;18.50;90.00
16515;DHT22;8370;52.556;7.970;2023-04-03T13:14:52;18.50;88.10
16515;DHT22;8370;52.556;7.970;2023-04-03T13:17:18;18.00;90.90
16515;DHT22;8370;52.556;7.970;2023-04-03T13:19:44;17.40;91.20
16515;DHT22;8370;52.556;7.970;2023-04-03T13:22:18;17.20;89.60
16515;DHT22;8370;52.556;7.970;2023-04-03T13:24:47;17.10;92.00
16515;DHT22;8370;52.556;7.970;2023-04-03T13:27:13;17.70;89.90
16515;DHT22;8370;52.556;7.970;2023-04-03T13:29:38;17.40;86.80
16515;DHT22;8370;52.556;7.970;2023-04-03T13:32:04;17.10;91.20
16515;DHT22;8370;52.556;7.970;2023-04-03T13:34:36;18.00;90.00
16515;DHT22;8370;52.556;7.970;2023-04-03T13:37:02;17.40;87.60
16515;DHT22;8370;52.556;7.970;2023-04-03T13:39:30;15.50;90.70
16515;DHT22;8370;52.556;7.970;2023-04-03T13:41:58;14.20;91.80
16515;DHT22;8370;52.556;7.970;2023-04-03T13:46:56;12.40;93.90
16515;DHT22;8370;52.556;7.970;2023-04-03T13:51:51;13.10;92.90
16515;DHT22;8370;52.556;7.970;2023-04-03T13:56:45;13.30;93.50
16515;DHT22;8370;52.556;7.970;2023-04-03T14:01:44;14.00;92.10
16515;DHT22;8370;52.556;7.970;2023-04-03T14:04:18;14.30;93.70
16515;DHT22;8370;52.556;7.970;2023-04-03T14:06:44;14.90;91.40
16515;DHT22;8370;52.556;7.970;2023-04-03T14:09:09;15.70;92.00
16515;DHT22;8370;52.556;7.970;2023-04-03T14:11:35;16.50;88.40
16515;DHT22;8370;52.556;7.970;2023-04-03T14:14:02;15.90;89.40
16515;DHT22;8370;52.556;7.970;2023-04-03T14:16:30;15.50;91.40
16515;DHT22;8370;52.556;7.970;2023-04-03T14:18:56;15.40;90.00
16515;DHT22;8370;52.556;7.970;2023-04-03T14:21:22;15.20;89.70
16515;DHT22;8370;52.556;7.970;2023-04-03T14:23:47;13.40;91.00
16515;DHT22;8370;52.556;7.970;2023-04-03T14:26:14;12.00;92.50
16515;DHT22;8370;52.556;7.970;2023-04-03T14:28:41;11.20;93.50
16515;DHT22;8370;52.556;7.970;2023-04-03T14:31:07;10.50;95.20
16515;DHT22;8370;52.556;7.970;2023-04-03T14:33:32;10.60;96.80
16515;DHT22;8370;52.556;7.970;2023-04-03T14:36:00;10.90;96.40
16515;DHT22;8370;52.556;7.970;2023-04-03T14:38:28;11.00;96.20
16515;DHT22;8370;52.556;7.970;2023-04-03T14:40:53;11.10;95.80
16515;DHT22;8370;52.556;7.970;2023-04-03T14:43:19;11.30;97.80
16515;DHT22;8370;52.556;7.970;2023-04-03T14:45:46;11.40;95.50
16515;DHT22;8370;52.556;7.970;2023-04-03T14:48:22;11.50;98.40
16515;DHT22;8370;52.556;7.970;2023-04-03T14:50:48;11.40;95.30
16515;DHT22;8370;52.556;7.970;2023-04-03T14:53:14;11.60;95.60
16515;DHT22;8370;52.556;7.970;2023-04-03T14:55:42;11.90;95.10
16515;DHT22;8370;52.556;7.970;2023-04-03T14:58:12;12.00;97.20
16515;DHT22;8370;52.556;7.970;2023-04-03T15:00:38;12.00;93.90
16515;DHT22;8370;52.556;7.970;2023-04-03T15:03:03;12.00;93.90
16515;DHT22;8370;52.556;7.970;2023-04-03T15:05:29;11.70;93.80
16515;DHT22;8370;52.556;7.970;2023-04-03T15:07:54;11.50;92.90
16515;DHT22;8370;52.556;7.970;2023-04-03T15:10:25;11.50;96.90
16515;DHT22;8370;52.556;7.970;2023-04-03T15:12:51;11.60;96.10
16515;DHT22;8370;52.556;7.970;2023-04-03T15:15:18;11.80;95.50
16515;DHT22;8370;52.556;7.970;2023-04-03T15:17:45;11.80;96.80
16515;DHT22;8370;52.556;7.970;2023-04-03T15:20:11;12.40;94.20
16515;DHT22;8370;52.556;7.970;2023-04-03T15:22:37;12.70;93.40
16515;DHT22;8370;52.556;7.970;2023-04-03T15:25:02;12.50;93.90
16515;DHT22;8370;52.556;7.970;2023-04-03T15:27:28;11.50;93.60
16515;DHT22;8370;52.556;7.970;2023-04-03T15:29:53;10.90;95.50
16515;DHT22;8370;52.556;7.970;2023-04-03T15:32:19;10.60;97.00
16515;DHT22;8370;52.556;7.970;2023-04-03T15:34:44;10.90;98.10
16515;DHT22;8370;52.556;7.970;2023-04-03T15:37:10;11.40;94.40
16515;DHT22;8370;52.556;7.970;2023-04-03T15:39:35;12.10;94.80
16515;DHT22;8370;52.556;7.970;2023-04-03T15:42:01;13.00;94.40
16515;DHT22;8370;52.556;7.970;2023-04-03T15:44:32;13.70;91.40
16515;DHT22;8370;52.556;7.970;2023-04-03T15:46:57;14.40;91.70
16515;DHT22;8370;52.556;7.970;2023-04-03T15:49:23;15.60;91.50
16515;DHT22;8370;52.556;7.970;2023-04-03T15:51:48;15.80;91.50
16515;DHT22;8370;52.556;7.970;2023-04-03T15:54:14;16.40;90.10
16515;DHT22;8370;52.556;7.970;2023-04-03T15:56:40;17.10;87.50
16515;DHT22;8370;52.556;7.970;2023-04-03T15:59:05;16.50;88.60
16515;DHT22;8370;52.556;7.970;2023-04-03T16:01:31;16.60;88.60
16515;DHT22;8370;52.556;7.970;2023-04-03T16:03:56;17.00;84.40
16515;DHT22;8370;52.556;7.970;2023-04-03T16:06:22;16.60;86.30
16515;DHT22;8370;52.556;7.970;2023-04-03T16:08:49;16.40;87.00
16515;DHT22;8370;52.556;7.970;2023-04-03T16:11:15;16.60;86.40
16515;DHT22;8370;52.556;7.970;2023-04-03T16:13:41;16.40;85.80
16515;DHT22;8370;52.556;7.970;2023-04-03T16:16:07;15.90;86.80
16515;DHT22;8370;52.556;7.970;2023-04-03T16:18:33;16.40;84.60
16515;DHT22;8370;52.556;7.970;2023-04-03T16:20:59;16.00;83.10
16515;DHT22;8370;52.556;7.970;2023-04-03T16:23:25;14.80;87.00
16515;DHT22;8370;52.556;7.970;2023-04-03T16:25:50;13.30;88.60
16515;DHT22;8370;52.556;7.970;2023-04-03T16:28:16;12.80;91.00
16515;DHT22;8370;52.556;7.970;2023-04-03T16:30:42;13.00;91.50
16515;DHT22;8370;52.556;7.970;2023-04-03T16:33:09;13.10;92.30
16515;DHT22;8370;52.556;7.970;2023-04-03T16:35:35;14.50;90.30
16515;DHT22;8370;52.556;7.970;2023-04-03T16:38:00;16.10;87.60
16515;DHT22;8370;52.556;7.970;2023-04-03T16:40:26;17.00;88.80
16515;DHT22;8370;52.556;7.970;2023-04-03T16:42:51;16.50;86.00
16515;DHT22;8370;52.556;7.970;2023-04-03T16:45:16;17.00;84.00
16515;DHT22;8370;52.556;7.970;2023-04-03T16:47:42;16.50;84.70
16515;DHT22;8370;52.556;7.970;2023-04-03T16:50:08;16.50;84.40
16515;DHT22;8370;52.556;7.970;2023-04-03T16:52:33;17.00;84.00
16515;DHT22;8370;52.556;7.970;2023-04-03T16:54:58;17.20;84.90
16515;DHT22;8370;52.556;7.970;2023-04-03T16:57:24;17.20;84.80
16515;DHT22;8370;52.556;7.970;2023-04-03T16:59:50;16.20;85.80